Weather observations for the past three days for
Sauk Centre Municipal Airport
Metric (Imperial)
Date Time (cdt) Wind (kph) Vis. (km) Weather Sky Cond. Temperature (ºC) Relative Humidity Wind Chill (°C) Heat Index (°C) Pressure Precipitation (cm)
Air Dwpt 6 hour altimeter (cm) sea level (mb) 1 hr 3 hr 6 hr
Max. Min.
03 23:35 S 20 16.09 Fair CLR 12.7 -0.1 42% 74.98 0.0
03 23:15 S 20 16.09 Fair CLR 12.6 0 42% 75.03 0.0
03 22:55 S 20 16.09 Fair CLR 12.6 0 42% 75.06 0.0
03 22:35 S 19 16.09 Fair CLR 12.8 0.5 43% 75.11 0.0
03 22:15 S 17 16.09 Fair CLR 12.6 0.6 44% 75.13 0.0
03 21:55 S 13 16.09 Fair CLR 11.8 0.7 47% 75.18 0.0
03 21:35 S 13 16.09 Fair CLR 12.3 0.3 44% 75.18 0.0
03 21:15 S 13 16.09 Fair CLR 12.7 0 42% 75.21 0.0
03 20:55 SW 11 16.09 Fair CLR 13.8 0 39% 75.23 0.0
03 20:35 SW 13 16.09 Fair CLR 14.5 -0.2 37% 75.26 0.0
03 20:15 SW 13 16.09 Fair CLR 15.9 -0.4 33% 75.26 0.0
03 19:55 SW 17 16.09 Fair CLR 17.1 -0.6 30% 75.29 0.0
03 19:35 SW 22 16.09 Fair CLR 18 -1.1 28% 75.31 0.0
03 19:15 W 26 G 33 16.09 Fair CLR 19 -0.9 26% 75.31 0.0
03 18:55 W 24 G 37 16.09 Fair CLR 19.2 -0.5 20.2 17.6 27% 75.34 0.0
03 18:35 W 24 16.09 Fair CLR 19.1 -0.4 27% 75.36 0.0
03 18:15 W 20 G 37 16.09 Fair CLR 19 -0.5 27% 75.36 0.0
03 17:55 W 17 G 33 16.09 Fair CLR 19.6 -0.8 25% 75.36 0.0
03 17:35 W 19 G 35 16.09 Fair CLR 19.2 -1.4 25% 75.36 0.0
03 17:15 W 26 G 41 16.09 Fair CLR 20 -1.1 24% 75.39 0.0
03 16:55 W 20 G 39 16.09 Fair CLR 20.1 -0.8 25% 75.41 0.0
03 16:35 NW 17 G 30 16.09 Fair CLR 19.8 -1.3 24% 75.44 0.0
03 16:15 W 19 G 26 16.09 Fair CLR 20 -1.7 23% 75.46 0.0
03 15:55 W 28 G 37 16.09 Fair CLR 20 -0.9 25% 75.46 0.0
03 15:35 W 9 G 35 16.09 Fair CLR 19.3 -2.1 24% 75.49 0.0
03 15:15 NW 20 16.09 Fair CLR 19.5 -2.5 23% 75.51 0.0
03 14:55 W 22 G 28 16.09 Fair CLR 18.8 -1.9 25% 75.54 0.0
03 14:35 W 20 G 33 16.09 Fair CLR 18.8 -1.9 25% 75.57 0.0
03 14:15 W 20 G 35 16.09 Fair CLR 18.6 -1.8 25% 75.57 0.0
03 13:55 NW 7 G 31 16.09 Fair CLR 18 -3 24% 75.59 0.0
03 13:35 NW 19 G 30 16.09 Fair CLR 18.2 -1.8 26% 75.62 0.0
03 13:15 NW 17 G 39 16.09 Fair CLR 18 -2.3 25% 75.64 0.0
03 12:55 NW 17 G 33 16.09 Fair CLR 17.5 -2.4 17.5 8 26% 75.64 0.0
03 12:35 W 17 G 26 16.09 Fair CLR 17.3 -2.9 25% 75.67 0.0
03 12:15 NW 19 G 31 16.09 Fair CLR 16.7 -3.1 26% 75.67 0.0
03 11:55 NW 24 G 41 16.09 Fair CLR 16.5 -3.6 25% 75.69 0.0
03 11:35 NW 20 G 35 16.09 Fair CLR 16.2 -3.2 26% 75.69 0.0
03 11:15 NW 19 16.09 Fair CLR 15.9 -2.7 28% 75.69 0.0
03 10:55 NW 22 G 31 16.09 Fair CLR 15.2 -0.4 35% 75.69 0.0
03 10:35 NW 24 G 33 16.09 Fair CLR 15 0.4 37% 75.69 0.0
03 10:15 NW 20 16.09 Fair CLR 14.6 1 40% 75.67 0.0
03 09:55 NW 30 G 39 16.09 Fair CLR 13.9 1.4 43% 75.67 0.0
03 09:35 NW 24 G 35 16.09 Fair CLR 13.8 1.8 44% 75.67 0.0
03 09:15 NW 20 16.09 Fair CLR 13 2 47% 75.67 0.0
03 08:55 NW 20 16.09 Fair CLR 12.3 2 50% 75.67 0.0
03 08:35 NW 20 G 28 16.09 Fair CLR 11.5 1.9 52% 75.64 0.0
03 08:15 NW 19 16.09 Fair CLR 10.5 2.3 57% 75.62 0.0
03 07:55 NW 19 16.09 Fair CLR 9.6 2.4 61% 7 75.62 0.0
03 07:35 NW 15 16.09 Fair CLR 9.1 2 61% 7 75.59 0.0
03 07:15 NW 19 16.09 Fair CLR 8.3 1.3 62% 6 75.57 0.0
03 06:55 NW 17 16.09 Fair CLR 8 1 11.5 6.8 62% 6 75.57 0.0
03 06:35 NW 20 16.09 Fair CLR 7.3 1 65% 4 75.54 0.0
03 06:15 NW 20 16.09 Fair CLR 7 1 66% 4 75.51 0.0
03 05:55 NW 19 16.09 Fair CLR 7 1.1 66% 4 75.49 0.0
03 05:35 NW 20 16.09 Fair CLR 7.3 1.2 66% 4 75.49 0.0
03 05:15 NW 17 16.09 Fair CLR 7.3 1.2 66% 5 75.46 0.0
03 04:55 NW 19 16.09 Fair CLR 7.7 1.3 64% 5 75.46 0.0
03 04:35 NW 19 16.09 Fair CLR 7.7 1.5 65% 5 75.44 0.0
03 04:15 NW 15 16.09 Fair CLR 8.6 1.6 62% 6 75.44 0.0
03 03:55 W 11 16.09 Fair CLR 7.5 1.8 67% 6 75.41 0.0
03 03:35 W 11 16.09 Fair CLR 7.1 1.2 66% 5 75.41 0.0
03 03:15 W 9 16.09 Fair CLR 8.3 1.4 62% 7 75.41 0.0
03 02:55 SW 9 16.09 Fair CLR 9.6 1.4 57% 9 75.39 0.0
03 02:35 S 11 16.09 Fair CLR 10.4 1.5 54% 75.36 0.0
03 02:15 SW 9 16.09 Fair CLR 10.9 1.5 53% 75.41 0.0
03 01:55 S 11 16.09 Fair CLR 10.7 2 55% 75.41 0.0
03 01:35 S 15 16.09 Fair CLR 10.5 2.2 57% 75.41 0.0
03 01:15 S 15 16.09 Fair CLR 11.1 2.2 55% 75.41 0.0
03 00:55 S 15 16.09 Fair CLR 11.5 2.3 17 10.4 54% 75.41 0.0
03 00:35 S 19 16.09 Fair CLR 11.6 2.7 55% 75.41 0.0
03 00:15 S 17 16.09 Fair CLR 11.5 3 56% 75.41 0.0
02 23:55 S 20 16.09 Fair CLR 12 3.2 55% 75.41 0.0
02 23:35 S 15 16.09 Partly Cloudy SCT110 11.7 3.4 57% 75.44 0.0
02 23:15 S 13 16.09 Partly Cloudy SCT110 12.8 3.5 53% 75.44 0.0
02 22:55 S 20 16.09 Mostly Cloudy BKN110 13.6 3 49% 75.46 0.0
02 22:35 S 17 16.09 Mostly Cloudy SCT080 BKN110 13 1.5 46% 75.46 0.0
02 22:15 S 19 16.09 Mostly Cloudy BKN110 12.1 1 47% 75.49 0.0
02 21:55 SE 13 16.09 Mostly Cloudy BKN095 BKN120 10.5 1.2 53% 75.51 0.0
02 21:35 SE 11 16.09 Partly Cloudy SCT095 10.4 0.8 52% 75.54 0.0
02 21:15 SE 11 16.09 Partly Cloudy SCT120 11.7 0.6 47% 75.54 0.0
02 20:55 SE 9 16.09 Mostly Cloudy BKN110 12 0.9 47% 75.57 0.0
02 20:35 SE 13 16.09 Fair CLR 12 0.9 47% 75.57 0.0
02 20:15 S 17 16.09 Partly Cloudy SCT110 14.1 0.7 40% 75.59 0.0
02 19:55 S 13 16.09 Mostly Cloudy BKN110 16 0.3 35% 75.62 0.0
02 19:35 S 11 16.09 Mostly Cloudy BKN110 17 0.2 32% 75.67 0.0
02 19:15 SW 13 16.09 Overcast OVC110 16.6 0.2 33% 75.69 0.0
02 18:55 S 11 16.09 Mostly Cloudy SCT075 SCT085 BKN110 16.4 0.4 20.3 15.6 34% 75.72 0.0
02 18:35 S 9 16.09 Mostly Cloudy SCT070 SCT080 BKN110 16 1.1 37% 75.74 0.0
02 18:15 S 17 G 26 16.09 Overcast SCT060 BKN070 OVC080 15.9 0.8 36% 75.79 0.0
02 17:55 SW 26 G 44 16.09 Overcast SCT060 OVC075 16 0.4 35% 75.84 0.0
02 17:35 W 43 G 56 16.09 Overcast and Windy SCT060 BKN075 OVC090 16.8 -0.4 31% 75.82 0.0
02 17:15 W 20 G 43 16.09 Overcast SCT060 SCT075 OVC090 17.2 -1.3 29% 75.79 0.0
02 16:55 SW 28 G 63 16.09 Overcast SCT060 SCT075 OVC090 17.3 -0.6 30% 75.84 0.0
02 16:35 SW 26 G 41 16.09 Mostly Cloudy BKN090 BKN110 17.7 -0.3 30% 75.82 0.0
02 16:15 SW 28 G 43 16.09 Mostly Cloudy BKN090 BKN110 18.5 -0.3 28% 75.82 0.0
02 15:55 W 26 G 37 16.09 Mostly Cloudy BKN090 18.8 -0.2 28% 75.82 0.0
02 15:35 W 26 G 37 16.09 Partly Cloudy SCT090 19.2 0.1 28% 75.84 0.0
02 15:15 W 24 G 37 16.09 Partly Cloudy SCT090 18.9 -0.2 28% 75.87 0.0
02 14:55 SW 30 G 35 16.09 Partly Cloudy SCT090 18.6 0.3 29% 75.9 0.0
02 14:35 SW 22 G 31 16.09 Partly Cloudy SCT080 SCT110 19.1 0.3 28% 75.92 0.0
02 14:15 SW 30 G 39 16.09 Partly Cloudy SCT100 19.9 1 28% 75.95 0.0
02 13:55 W 26 G 35 16.09 Partly Cloudy SCT100 18.8 1.1 31% 75.97 0.0
02 13:35 SW 24 G 30 16.09 Fair CLR 18.5 1.3 32% 76 0.0
02 13:15 SW 20 G 30 16.09 Partly Cloudy SCT110 16.5 1.2 36% 76.05 0.0
02 12:55 SW 24 G 31 16.09 Fair CLR 17.5 0.8 17.5 1.3 33% 76.07 0.0
02 12:35 S 22 G 33 16.09 Fair CLR 16.7 0.6 34% 76.1 0.0
02 12:15 S 26 G 39 16.09 Fair CLR 16.1 0.2 34% 76.1 0.0
02 11:55 SW 22 16.09 Fair CLR 15.6 0.5 36% 76.12 0.0
02 11:35 S 17 16.09 Fair CLR 14.7 0.2 37% 76.15 0.0
02 11:15 SW 19 G 28 16.09 Fair CLR 14.3 -0.2 37% 76.17 0.0
02 10:55 S 19 16.09 Fair CLR 13.6 -0.2 39% 76.2 0.0
02 10:35 S 19 16.09 Fair CLR 13 -0.3 40% 76.2 0.0
02 10:15 SW 20 16.09 Fair CLR 12.3 -0.6 41% 76.23 0.0
02 09:55 SW 20 16.09 Fair CLR 11.4 -1.3 42% 76.25 0.0
02 09:35 SW 19 16.09 Fair CLR 10.7 -0.9 45% 76.28 0.0
02 09:15 SW 15 16.09 Fair CLR 9.7 -0.9 48% 8 76.3 0.0
02 08:55 SW 13 16.09 Partly Cloudy SCT090 8.4 -0.9 52% 7 76.3 0.0
02 08:35 SW 17 16.09 Mostly Cloudy BKN090 7.9 -1.2 53% 5 76.33 0.0
02 08:15 SW 13 16.09 Mostly Cloudy BKN090 7.1 -1.3 56% 5 76.33 0.0
02 07:55 SW 7 16.09 Mostly Cloudy BKN090 5.6 -0.2 67% 4 76.33 0.0
02 07:35 Calm 16.09 Mostly Cloudy BKN090 3.9 -0.2 75% 76.35 0.0
02 07:15 SW 11 16.09 Mostly Cloudy BKN090 2.2 -1.8 75% -1 76.35 0.0
02 06:55 SW 7 16.09 Partly Cloudy SCT090 1.5 -3.1 2.3 -1.7 72% -0 76.35 0.0
02 06:35 Calm 16.09 Partly Cloudy SCT090 -0.1 -3.5 78% 76.35 0.0
02 06:15 Calm 16.09 Partly Cloudy SCT090 -0.6 -3.6 80% 76.38 0.0
02 05:55 Calm 16.09 Fair CLR -0.4 -3.6 79% 76.38 0.0
02 05:35 W 6 16.09 Fair CLR -1.1 -3.8 82% 76.38 0.0
02 05:15 Calm 16.09 Fair CLR -1.4 -4.2 81% 76.38 0.0
02 04:55 Calm 16.09 Fair CLR -1.5 -2.6 92% 76.38 0.0
02 04:35 Calm 16.09 Fair CLR -0.8 -3.7 81% 76.4 0.0
02 04:15 Calm 16.09 Fair CLR -0.6 -4.3 76% 76.38 0.0
02 03:55 Calm 16.09 Fair CLR 0.2 -4 74% 76.4 0.0
02 03:35 Calm 16.09 Fair CLR 0 -4.4 73% 76.38 0.0
02 03:15 Calm 16.09 Fair CLR -0.2 -4.5 73% 76.38 0.0
02 02:55 W 6 16.09 Fair CLR 1 -4.3 68% 76.4 0.0
02 02:35 Calm 16.09 Fair CLR 0.9 -4.6 67% 76.4 0.0
02 02:15 Calm 16.09 Fair CLR 0.5 -4.7 68% 76.4 0.0
02 01:55 W 6 16.09 Fair CLR 1.4 -4.5 65% 76.4 0.0
02 01:35 W 7 16.09 Fair CLR 1.8 -4.3 64% -0 76.43 0.0
02 01:15 W 6 16.09 Fair CLR 1.6 -4.3 65% 76.43 0.0
02 00:55 Calm 16.09 Fair CLR 2.3 -4 11.5 1.7 63% 76.43 0.0
02 00:35 W 7 16.09 Fair CLR 2.2 -4.1 63% 0 76.43 0.0
02 00:15 W 7 16.09 Fair CLR 2.7 -4.3 60% 1 76.43 0.0
01 23:55 W 7 16.09 Fair CLR 2.5 -4 63% 1 76.43 0.0
01 23:35 Calm 16.09 Fair CLR 3.3 -4.1 59% 76.43 0.0
01 23:15 Calm 16.09 Fair CLR 3.5 -3.7 60% 76.43 0.0
01 22:55 W 6 16.09 Fair CLR 3.5 -3.7 60% 76.45 0.0
01 22:35 W 6 16.09 Fair CLR 3.7 -3.7 59% 76.45 0.0
01 22:15 W 7 16.09 Fair CLR 4 -3.6 58% 2 76.43 0.0
01 21:55 W 7 16.09 Fair CLR 4.9 -4 53% 3 76.43 0.0
01 21:35 W 9 16.09 Fair CLR 5.1 -4 52% 3 76.43 0.0
01 21:15 W 9 16.09 Fair CLR 6.1 -4.1 48% 4 76.43 0.0
01 20:55 W 11 16.09 Fair CLR 7.2 -4.4 44% 5 76.4 0.0
01 20:35 W 11 16.09 Fair CLR 7.8 -4.2 43% 6 76.4 0.0
01 20:15 W 9 16.09 Fair CLR 8.4 -3.9 42% 7 76.38 0.0
01 19:55 W 7 16.09 Partly Cloudy SCT075 10.3 -5.3 33% 76.38 0.0
01 19:35 W 11 16.09 Overcast OVC075 10.8 -4.8 33% 76.38 0.0
01 19:15 W 11 16.09 Mostly Cloudy BKN075 BKN095 10.7 -5.5 32% 76.38 0.0
01 18:55 W 11 16.09 Mostly Cloudy BKN075 BKN095 11.6 -5.9 12.1 7.9 29% 76.38 0.0
01 18:35 W 13 16.09 Overcast OVC075 12 -5.5 29% 76.38 0.0
01 18:15 NW 9 16.09 Mostly Cloudy BKN075 BKN090 11.6 -5.9 29% 76.38 0.0
01 17:55 N 9 16.09 Mostly Cloudy BKN075 BKN090 10.5 -6.5 30% 76.38 0.0
01 17:35 NW 17 16.09 Mostly Cloudy BKN075 11 -6 30% 76.38 0.0
01 17:15 NW 13 G 26 16.09 Partly Cloudy SCT075 11.6 -6.8 27% 76.38 0.0
01 16:55 N 9 16.09 Fair CLR 11.1 -7.1 27% 76.4 0.0
01 16:35 NW 19 G 26 16.09 Partly Cloudy SCT080 11.5 -6.8 27% 76.4 0.0
01 16:15 NE 7 16.09 Partly Cloudy SCT080 10.1 -7.2 29% 76.4 0.0
01 15:55 NE 7 16.09 Partly Cloudy SCT070 11.1 -6.7 28% 76.43 0.0
01 15:35 NW 7 16.09 Fair CLR 10.4 -6.9 29% 76.43 0.0
01 15:15 N 17 G 28 16.09 Partly Cloudy SCT070 10.7 -6.7 29% 76.45 0.0
01 14:55 SW 9 16.09 Partly Cloudy SCT070 10.5 -5.2 33% 76.45 0.0
01 14:35 N 13 16.09 Partly Cloudy SCT070 10.6 -6.5 30% 76.45 0.0
01 14:15 NW 17 16.09 Fair CLR 9.8 -6.2 32% 8 76.45 0.0
01 13:55 Calm 16.09 Partly Cloudy SCT065 9.7 -6.7 31% 76.45 0.0
01 13:35 NW 13 16.09 Mostly Cloudy BKN065 9.6 -5.3 35% 8 76.45 0.0
01 13:15 NW 9 16.09 Mostly Cloudy BKN065 8.3 -5.3 38% 7 76.48 0.0
01 12:55 NW 17 16.09 Partly Cloudy SCT065 8.5 -5.4 9 0.1 37% 6 76.48 0.0
01 12:35 N 13 16.09 Partly Cloudy SCT055 8.5 -5.5 37% 7 76.48 0.0
01 12:15 NW 9 16.09 Mostly Cloudy BKN055 8 -5.6 38% 7 76.48 0.0
01 11:55 Calm 16.09 Mostly Cloudy BKN055 8.6 -5.2 38% 76.48 0.0
01 11:35 N 11 16.09 Partly Cloudy SCT055 7.5 -5.5 40% 6 76.48 0.0
01 11:15 NW 9 16.09 Mostly Cloudy BKN055 7.4 -5.7 39% 6 76.48 0.0
01 10:55 NW 6 16.09 Mostly Cloudy BKN055 6.5 -5.8 41% 76.5 0.0
01 10:35 Calm 16.09 Fair CLR 5.7 -5.5 45% 76.5 0.0
01 10:15 N 6 16.09 Partly Cloudy SCT047 6.7 -5.2 43% 76.5 0.0
01 09:55 Calm 16.09 Fair CLR 6.4 -4.7 45% 76.48 0.0
01 09:35 Calm 16.09 Fair CLR 6.1 -4.5 47% 76.48 0.0
01 09:15 N 6 16.09 Fair CLR 5.4 -4.5 49% 76.48 0.0
01 08:55 Calm 16.09 Fair CLR 5.2 -4.8 49% 76.48 0.0
01 08:35 N 6 16.09 Fair CLR 4 -3.9 57% 76.48 0.0
01 08:15 N 6 16.09 Fair CLR 3.5 -3.4 61% 76.48 0.0
01 07:55 N 7 16.09 Fair CLR 2.5 -2.3 71% 1 76.45 0.0
01 07:35 Calm 16.09 Fair CLR 1.7 -2 77% 76.45 0.0
01 07:15 N 6 16.09 Fair CLR 0.3 -3.3 77% 76.43 0.0
01 06:55 N 6 16.09 Partly Cloudy SCT050 0 -3.9 3.3 -1 75% 76.43 0.0
01 06:35 Calm 16.09 Mostly Cloudy BKN050 -0.3 -3.8 78% 76.4 0.0
01 06:15 Calm 16.09 Mostly Cloudy BKN050 -0.6 -4.4 76% 76.4 0.0
01 05:55 Calm 16.09 Fair CLR -0.1 -4.2 74% 76.38 0.0
01 05:35 N 6 16.09 Partly Cloudy SCT050 0 -4.1 74% 76.38 0.0
01 05:15 N 7 16.09 Partly Cloudy SCT050 0 -4.3 73% -2 76.38 0.0
01 04:55 Calm 16.09 Fair CLR 0.2 -4.1 73% 76.38 0.0
01 04:35 NW 6 16.09 Fair CLR 0.7 -4 71% 76.38 0.0
01 04:15 NW 7 16.09 Fair CLR 0.7 -3.8 72% -1 76.35 0.0
01 03:55 NW 7 16.09 Fair CLR 1 -3.5 72% -1 76.35 0.0
01 03:35 W 6 16.09 Mostly Cloudy BKN060 0.9 -3.5 73% 76.35 0.0
01 03:15 NW 7 16.09 Overcast OVC060 2 -3.1 69% 0 76.33 0.0
01 02:55 NW 7 16.09 Overcast OVC050 2 -2.8 71% 0 76.33 0.0
01 02:35 NW 9 16.09 Overcast OVC050 2.7 -3.1 66% 0 76.33 0.0
01 02:15 NW 7 16.09 Overcast OVC050 2.8 -3.5 64% 1 76.33 0.0
01 01:55 NW 7 16.09 Mostly Cloudy BKN050 BKN065 2 -3.2 69% 0 76.35 0.0
01 01:35 NW 7 16.09 Overcast BKN055 OVC065 3 -3.7 62% 1 76.33 0.0
01 01:15 N 11 16.09 Overcast OVC055 3.1 -3.5 62% 0 76.35 0.0
01 00:55 N 11 16.09 Overcast BKN055 OVC065 3.6 -3.4 8.6 3.1 61% 1 76.33 0.0
01 00:35 N 11 16.09 Mostly Cloudy BKN055 BKN075 3.3 -3 64% 1 76.33 0.0
01 00:15 NW 11 16.09 Fair CLR 3.2 -3.3 63% 1 76.33 0.0
30 23:55 N 13 16.09 Fair CLR 3.9 -3.3 60% 1 76.3 0.0
Date Time (cdt) Wind (kph) Vis. (km) Weather Sky Cond. Air Dwpt Max. Min. Relative Humidity Wind Chill (°C) Heat Index (°C) altimeter (cm) sea level (mb) 1 hr 3 hr 6 hr
6 hour
Temperature (ºC) Pressure Precipitation (cm)